KMLS/MLS METAR and TAF weather

Enter ICAO airport designator
Station Type Date Time Source
KMLS METAR 2019/08/25 19:53 UTC NOAA

KMLS 251953Z AUTO 31010KT 10SM CLR 27/05 A2979 RMK AO2 SLP066 T02670050


Station Type Date Time Source
KMLS Decoded METAR 2019/08/25 19:53 UTC NOAA

Station name not available
Aug 25, 2019 - 03:53 PM EDT / 2019.08.25 1953 UTC
Wind: from the NW (310 degrees) at 12 MPH (10 KT):0
Visibility: 10 mile(s):0
Sky conditions: clear
Temperature: 80.1 F (26.7 C)
Dew Point: 41.0 F (5.0 C)
Relative Humidity: 24%
Pressure (altimeter): 29.79 in. Hg (1008 hPa)
ob: KMLS 251953Z AUTO 31010KT 10SM CLR 27/05 A2979 RMK AO2 SLP066 T02670050
cycle: 20

Station Type Date Time Source
KMLS TAF 2019/08/25 18:30 UTC NOAA

TAF KMLS 251728Z 2518/2618 31014G21KT P6SM FEW090 BKN120
FM260000 34013KT P6SM VCTS BKN070CB
FM260400 31011KT P6SM VCSH BKN060
FM260800 31013KT P6SM BKN060

Example: see airport list